Time;durP1;ratioP1;P1;durP2;ratioP2;P2;SDS_P1;SDS_P2;PMS_P1;PMS_P2;Temp;Humidity;BMP_temperature;BMP_pressure;BME280_temperature;BME280_humidity;BME280_pressure;Samples;Min_cycle;Max_cycle;Signal;HPM_P1;HPM_P2
2022/09/06 00:01:41;;;;;;;3.20;1.65;;;;;;;17.32;46.76;100948.66;5985813;23;97038;-85
2022/09/06 00:04:07;;;;;;;9.98;2.35;;;;;;;17.28;46.97;100952.44;5986620;23;96857;-84
2022/09/06 00:06:33;;;;;;;3.30;2.05;;;;;;;17.15;47.18;100935.41;5985767;23;100866;-84
2022/09/06 00:08:58;;;;;;;2.90;1.83;;;;;;;17.15;47.09;100948.69;5985984;23;101434;-87
2022/09/06 00:11:24;;;;;;;6.28;2.28;;;;;;;17.25;46.72;100946.41;6010229;23;97185;-89
2022/09/06 00:13:49;;;;;;;3.42;2.10;;;;;;;17.16;47.22;100937.13;5986205;23;97146;-84
2022/09/06 00:16:20;;;;;;;5.80;2.20;;;;;;;17.14;46.91;100936.38;6010220;23;99914;-84
2022/09/06 00:18:45;;;;;;;5.70;2.20;;;;;;;17.14;46.82;100931.06;5985330;23;101171;-84
2022/09/06 00:21:17;;;;;;;5.38;1.85;;;;;;;16.98;46.71;100912.41;5985800;23;97164;-84
2022/09/06 00:23:42;;;;;;;3.58;2.20;;;;;;;17.13;47.04;100946.13;5985888;23;97468;-85
2022/09/06 00:26:08;;;;;;;5.40;2.28;;;;;;;17.16;47.08;100942.44;6034155;23;97724;-84
2022/09/06 00:28:33;;;;;;;6.53;2.15;;;;;;;17.13;47.24;100934.63;6033324;23;97382;-88
2022/09/06 00:31:16;;;;;;;5.38;2.00;;;;;;;17.04;46.99;100933.31;5985378;23;97029;-84
2022/09/06 00:33:41;;;;;;;7.57;2.28;;;;;;;17.05;47.14;100935.03;5985192;23;97145;-85
2022/09/06 00:36:08;;;;;;;9.18;2.35;;;;;;;17.06;47.50;100934.09;6019597;23;98008;-84
2022/09/06 00:38:33;;;;;;;7.70;2.45;;;;;;;17.05;47.27;100928.88;6038326;23;101375;-85
2022/09/06 00:40:59;;;;;;;5.10;2.08;;;;;;;17.05;47.28;100935.03;6063004;23;96933;-84
2022/09/06 00:43:24;;;;;;;5.55;2.35;;;;;;;16.91;47.31;100919.81;6063378;23;96922;-86
2022/09/06 00:45:51;;;;;;;4.53;2.00;;;;;;;16.93;47.44;100917.97;6062182;23;101775;-84
2022/09/06 00:48:17;;;;;;;5.65;1.73;;;;;;;17.02;47.37;100927.25;6063270;23;98013;-84
2022/09/06 00:50:45;;;;;;;6.95;2.40;;;;;;;16.84;47.39;100920.22;6038504;23;97074;-84
2022/09/06 00:53:10;;;;;;;5.88;2.08;;;;;;;16.96;47.46;100924.91;6062961;23;97308;-84
2022/09/06 00:55:36;;;;;;;4.55;1.88;;;;;;;16.93;47.67;100935.69;6038421;23;100443;-84
2022/09/06 00:58:01;;;;;;;3.47;1.80;;;;;;;16.88;47.40;100921.78;6038244;23;100659;-84
2022/09/06 01:00:27;;;;;;;3.88;2.13;;;;;;;16.92;47.44;100936.59;6038562;23;96581;-88
2022/09/06 01:02:52;;;;;;;5.40;2.10;;;;;;;16.89;47.54;100934.09;6014894;23;97173;-86
2022/09/06 01:05:19;;;;;;;3.78;1.80;;;;;;;16.85;47.55;100936.06;6038700;23;100815;-84
2022/09/06 01:08:15;;;;;;;5.18;2.10;;;;;;;16.85;47.39;100944.00;6013708;23;100706;-84
2022/09/06 01:11:02;;;;;;;3.22;2.00;;;;;;;16.81;47.52;100920.38;6038043;23;96898;-84
2022/09/06 01:13:54;;;;;;;7.32;2.05;;;;;;;16.87;47.70;100942.16;6062851;23;97081;-88
2022/09/06 01:16:26;;;;;;;5.50;1.90;;;;;;;16.83;47.50;100937.06;6003527;23;98727;-84
2022/09/06 01:19:25;;;;;;;4.07;2.25;;;;;;;16.74;47.71;100933.03;6037777;23;101029;-85
2022/09/06 01:22:00;;;;;;;3.83;1.75;;;;;;;16.68;47.73;100926.25;6014552;23;96709;-85
2022/09/06 01:24:38;;;;;;;5.30;2.30;;;;;;;16.72;47.75;100938.41;6063159;23;96795;-84
2022/09/06 01:27:14;;;;;;;3.47;2.00;;;;;;;16.68;47.98;100944.81;6062203;23;100135;-84
2022/09/06 01:29:57;;;;;;;7.97;2.47;;;;;;;16.62;48.54;100945.13;6014555;23;100274;-84
2022/09/06 01:32:33;;;;;;;3.38;1.85;;;;;;;16.61;48.31;100937.22;6063062;23;97074;-84
2022/09/06 01:35:05;;;;;;;2.40;1.77;;;;;;;16.64;48.04;100943.25;6089001;23;96795;-85
2022/09/06 01:37:31;;;;;;;4.55;2.00;;;;;;;16.50;47.87;100933.31;6034007;23;97822;-87
2022/09/06 01:39:56;;;;;;;3.83;1.90;;;;;;;16.47;48.23;100930.81;6008863;23;101355;-84
2022/09/06 01:42:24;;;;;;;5.28;1.90;;;;;;;16.44;48.43;100936.28;5985679;23;96836;-85
2022/09/06 01:44:54;;;;;;;4.75;1.88;;;;;;;16.37;48.62;100926.03;6033014;23;96676;-84
2022/09/06 01:47:41;;;;;;;5.28;2.25;;;;;;;16.45;48.33;100935.34;6009743;23;100218;-84
2022/09/06 01:50:26;;;;;;;3.78;1.50;;;;;;;16.46;48.20;100942.38;6010537;23;101528;-84
2022/09/06 01:53:04;;;;;;;3.00;1.83;;;;;;;16.27;48.44;100901.78;6010313;23;96688;-84
2022/09/06 01:55:59;;;;;;;9.18;2.00;;;;;;;16.43;48.68;100931.91;6011316;23;96930;-88
2022/09/06 01:58:48;;;;;;;3.63;2.03;;;;;;;16.39;48.56;100929.50;6010442;23;101824;-84
2022/09/06 02:01:20;;;;;;;3.28;2.08;;;;;;;16.29;48.68;100924.63;6010535;23;101257;-84
2022/09/06 02:03:54;;;;;;;6.00;2.17;;;;;;;16.27;48.68;100928.28;6033962;23;97055;-84
2022/09/06 02:06:24;;;;;;;4.18;2.13;;;;;;;16.30;48.83;100947.53;5987236;23;96755;-84
2022/09/06 02:08:54;;;;;;;2.83;1.80;;;;;;;16.26;48.80;100937.16;6010132;23;100932;-84
2022/09/06 02:11:20;;;;;;;6.00;1.97;;;;;;;16.28;48.97;100932.66;5987132;23;101422;-84
2022/09/06 02:13:54;;;;;;;5.47;2.10;;;;;;;16.31;48.75;100943.09;6009862;23;97238;-84
2022/09/06 02:16:23;;;;;;;6.38;2.17;;;;;;;16.18;48.80;100941.97;6011178;23;96737;-84
2022/09/06 02:18:55;;;;;;;4.88;1.77;;;;;;;16.19;49.06;100941.03;6009520;23;97612;-85
2022/09/06 02:21:29;;;;;;;3.78;1.52;;;;;;;16.11;48.93;100922.84;6009250;23;101254;-87
2022/09/06 02:23:56;;;;;;;2.90;1.77;;;;;;;16.12;49.40;100929.88;6009357;23;96841;-84
2022/09/06 02:26:26;;;;;;;3.35;2.10;;;;;;;16.15;48.89;100928.88;6009801;23;96572;-84
2022/09/06 02:28:51;;;;;;;3.75;2.53;;;;;;;16.19;49.00;100925.16;6009368;23;98027;-84
2022/09/06 02:31:22;;;;;;;3.70;1.83;;;;;;;16.07;49.60;100929.22;5986412;23;99682;-84
2022/09/06 02:33:49;;;;;;;3.72;1.85;;;;;;;16.02;49.56;100931.22;6010208;23;97069;-85
2022/09/06 02:36:15;;;;;;;4.93;1.65;;;;;;;16.00;49.37;100938.41;6022060;23;96819;-84
2022/09/06 02:38:41;;;;;;;5.57;1.98;;;;;;;15.83;49.73;100910.91;6014476;23;100116;-83
2022/09/06 02:41:07;;;;;;;3.75;1.95;;;;;;;15.89;49.31;100912.44;6039223;23;101164;-83
2022/09/06 02:43:32;;;;;;;6.55;1.90;;;;;;;15.98;49.78;100927.88;6015027;23;97086;-83
2022/09/06 02:45:58;;;;;;;3.53;2.10;;;;;;;15.94;50.02;100930.72;6064541;23;97251;-84
2022/09/06 02:48:23;;;;;;;4.32;1.98;;;;;;;15.99;49.59;100931.38;6015081;23;101714;-83
2022/09/06 02:50:49;;;;;;;3.97;1.88;;;;;;;15.96;49.54;100928.88;6014786;23;101787;-84
2022/09/06 02:53:15;;;;;;;4.65;2.13;;;;;;;15.98;49.61;100917.28;6038849;23;97711;-83
2022/09/06 02:55:41;;;;;;;4.00;1.90;;;;;;;15.89;49.94;100911.56;6063318;23;96822;-83
2022/09/06 02:58:08;;;;;;;5.32;2.10;;;;;;;15.91;50.06;100917.63;6014876;23;101551;-84
2022/09/06 03:00:34;;;;;;;3.58;2.10;;;;;;;15.78;50.26;100907.63;6038715;23;101970;-85
2022/09/06 03:02:59;;;;;;;7.78;1.90;;;;;;;15.71;50.28;100895.63;6039527;23;96793;-83
2022/09/06 03:05:26;;;;;;;4.93;1.85;;;;;;;15.79;50.39;100908.47;6039308;23;96905;-85
2022/09/06 03:07:53;;;;;;;5.35;1.95;;;;;;;15.82;50.61;100916.28;6039008;23;98475;-85
2022/09/06 03:10:19;;;;;;;4.32;1.70;;;;;;;15.72;50.49;100894.69;6015209;23;101376;-84
2022/09/06 03:12:45;;;;;;;3.05;2.00;;;;;;;15.73;50.39;100904.31;6014655;23;97350;-86
2022/09/06 03:15:12;;;;;;;7.18;1.80;;;;;;;15.79;50.44;100914.63;6015157;23;97002;-82
2022/09/06 03:17:38;;;;;;;4.70;1.75;;;;;;;15.61;50.68;100895.13;6037976;23;100395;-83
2022/09/06 03:20:04;;;;;;;4.05;2.17;;;;;;;15.52;50.93;100884.13;6014739;23;100454;-85
2022/09/06 03:22:30;;;;;;;5.28;1.85;;;;;;;15.50;51.00;100905.34;6039441;23;96951;-87
2022/09/06 03:24:56;;;;;;;7.97;2.10;;;;;;;15.65;50.81;100909.09;6038910;23;96612;-83
2022/09/06 03:27:22;;;;;;;7.07;2.13;;;;;;;15.73;50.63;100903.47;6037594;23;101286;-85
2022/09/06 03:29:47;;;;;;;5.20;1.83;;;;;;;15.64;51.03;100902.06;6014229;23;100025;-85
2022/09/06 03:32:13;;;;;;;3.35;1.85;;;;;;;15.63;51.11;100901.22;6014924;23;97057;-85
2022/09/06 03:34:38;;;;;;;3.22;2.00;;;;;;;15.59;51.06;100898.78;6039132;23;96781;-82
2022/09/06 03:37:04;;;;;;;5.43;2.28;;;;;;;15.62;51.28;100903.94;6014872;23;101046;-83
2022/09/06 03:39:29;;;;;;;6.57;2.00;;;;;;;15.56;50.81;100902.44;6014545;23;101155;-83
2022/09/06 03:41:55;;;;;;;3.63;2.08;;;;;;;15.48;51.07;100901.94;6014371;23;96884;-85
2022/09/06 03:44:20;;;;;;;5.82;1.92;;;;;;;15.61;50.89;100911.00;6039238;23;97094;-85
2022/09/06 03:46:46;;;;;;;3.20;1.90;;;;;;;15.47;51.02;100894.03;6038604;23;98516;-83
2022/09/06 03:49:11;;;;;;;4.03;1.92;;;;;;;15.49;51.04;100905.41;6038951;23;100487;-83
2022/09/06 03:51:37;;;;;;;4.57;1.95;;;;;;;15.43;51.07;100898.63;6038655;23;97423;-83
2022/09/06 03:54:02;;;;;;;4.80;2.30;;;;;;;15.49;51.00;100913.34;6039123;23;96931;-83
2022/09/06 03:56:28;;;;;;;2.95;1.98;;;;;;;15.50;51.05;100910.63;6039099;23;101258;-83
2022/09/06 03:58:53;;;;;;;6.05;2.10;;;;;;;15.46;50.71;100902.91;6014334;23;100471;-84
2022/09/06 04:01:19;;;;;;;3.25;1.60;;;;;;;15.54;50.70;100900.78;6089628;23;96541;-83
2022/09/06 04:03:45;;;;;;;8.90;2.42;;;;;;;15.52;50.72;100897.34;6038558;23;96980;-82
2022/09/06 04:06:10;;;;;;;5.50;1.67;;;;;;;15.43;50.65;100893.31;6038694;23;98566;-83
2022/09/06 04:08:37;;;;;;;5.30;2.17;;;;;;;15.57;50.33;100877.69;6013953;23;101317;-83
2022/09/06 04:11:03;;;;;;;8.23;1.90;;;;;;;15.55;50.25;100892.78;6014871;23;96974;-83
2022/09/06 04:13:29;;;;;;;3.25;2.10;;;;;;;15.57;50.19;100890.91;6038154;23;96839;-85
2022/09/06 04:15:54;;;;;;;6.25;2.30;;;;;;;15.56;50.24;100897.16;6037750;23;100736;-83
2022/09/06 04:18:20;;;;;;;5.70;1.80;;;;;;;15.38;50.23;100872.34;6037788;23;98280;-83
2022/09/06 04:20:51;;;;;;;7.20;2.25;;;;;;;15.60;50.00;100890.78;6013047;23;96651;-84
2022/09/06 04:23:17;;;;;;;2.90;1.70;;;;;;;15.54;50.39;100899.00;6014160;23;96831;-83
2022/09/06 04:25:47;;;;;;;11.85;2.30;;;;;;;15.54;50.64;100899.00;6013051;23;100816;-83
2022/09/06 04:28:12;;;;;;;5.32;2.00;;;;;;;15.47;50.29;100902.84;6013052;23;100987;-83
2022/09/06 04:30:38;;;;;;;7.53;2.03;;;;;;;15.42;50.43;100885.44;6013755;23;97269;-85
2022/09/06 04:33:03;;;;;;;3.85;2.00;;;;;;;15.49;50.58;100889.56;6039235;23;96845;-84
2022/09/06 04:35:29;;;;;;;6.30;2.47;;;;;;;15.57;50.65;100887.41;6062637;23;97468;-85
2022/09/06 04:37:54;;;;;;;6.32;2.50;;;;;;;15.44;50.77;100887.09;6014576;23;101686;-84
2022/09/06 04:40:20;;;;;;;7.82;2.83;;;;;;;15.42;51.07;100881.03;6038963;23;96864;-84
2022/09/06 04:42:45;;;;;;;4.35;2.17;;;;;;;15.42;51.10;100882.81;6038434;23;96830;-84
2022/09/06 04:45:11;;;;;;;6.72;2.10;;;;;;;15.43;50.94;100885.41;6014726;23;101191;-87
2022/09/06 04:47:36;;;;;;;5.78;2.00;;;;;;;15.39;51.15;100886.47;6038881;23;98404;-85
2022/09/06 04:50:02;;;;;;;7.68;2.28;;;;;;;15.48;51.16;100891.34;6038779;23;96945;-85
2022/09/06 04:52:27;;;;;;;6.90;2.17;;;;;;;15.34;51.25;100893.75;6014973;23;97187;-83
2022/09/06 04:54:53;;;;;;;4.85;1.73;;;;;;;15.33;51.54;100902.59;6037209;23;101108;-84
2022/09/06 04:57:18;;;;;;;5.40;2.03;;;;;;;15.33;51.86;100897.31;6014866;23;100020;-84
2022/09/06 04:59:44;;;;;;;11.52;2.55;;;;;;;15.37;51.49;100898.91;6014382;23;96994;-83
2022/09/06 05:02:09;;;;;;;5.70;2.50;;;;;;;15.38;51.53;100901.47;6039221;23;96834;-84
2022/09/06 05:04:35;;;;;;;5.80;1.98;;;;;;;15.29;51.63;100895.72;6014340;23;101375;-87
2022/09/06 05:07:06;;;;;;;7.75;2.40;;;;;;;15.14;51.96;100882.25;6038618;23;101469;-84
2022/09/06 05:09:32;;;;;;;5.10;2.60;;;;;;;15.17;51.94;100883.91;6038746;23;96761;-85
2022/09/06 05:11:58;;;;;;;8.23;2.30;;;;;;;15.21;51.76;100890.78;6014860;23;97084;-86
2022/09/06 05:14:25;;;;;;;7.10;2.30;;;;;;;15.40;51.26;100901.41;6038782;23;100762;-83
2022/09/06 05:16:51;;;;;;;11.63;2.45;;;;;;;15.42;51.39;100902.22;6037145;23;101266;-85
2022/09/06 05:19:16;;;;;;;5.25;1.90;;;;;;;15.26;51.77;100885.28;6012813;23;97800;-85
2022/09/06 05:21:42;;;;;;;6.47;2.30;;;;;;;15.39;51.25;100903.19;6037633;23;97311;-87
2022/09/06 05:24:07;;;;;;;8.07;3.05;;;;;;;15.45;51.77;100895.91;6039144;23;101650;-86
2022/09/06 05:26:33;;;;;;;17.00;2.50;;;;;;;15.45;51.42;100885.34;6035693;23;100574;-80
2022/09/06 05:28:58;;;;;;;9.43;2.03;;;;;;;15.57;51.28;100911.22;6038337;23;96602;-78
2022/09/06 05:31:29;;;;;;;4.85;2.30;;;;;;;15.54;51.01;100890.22;6038548;23;96811;-78
2022/09/06 05:33:56;;;;;;;7.88;2.25;;;;;;;15.60;51.17;100908.44;6013815;23;100763;-77
2022/09/06 05:36:22;;;;;;;7.20;2.35;;;;;;;15.42;51.52;100910.13;6038100;23;101892;-78
2022/09/06 05:38:52;;;;;;;4.28;2.38;;;;;;;15.48;51.70;100904.56;6036848;23;96709;-78
2022/09/06 05:41:17;;;;;;;8.70;2.72;;;;;;;15.53;51.31;100923.75;6038263;23;96818;-76
2022/09/06 05:43:43;;;;;;;9.32;2.40;;;;;;;15.59;51.48;100918.19;6062061;23;101232;-77
2022/09/06 05:46:09;;;;;;;9.18;2.35;;;;;;;15.60;51.40;100924.31;6038947;23;97459;-76
2022/09/06 05:48:34;;;;;;;7.68;2.45;;;;;;;15.62;51.55;100918.03;6038892;23;96602;-83
2022/09/06 05:51:05;;;;;;;7.72;2.55;;;;;;;15.63;51.71;100922.38;6014572;23;96938;-77
2022/09/06 05:53:38;;;;;;;10.47;2.50;;;;;;;15.67;51.45;100923.09;6063751;23;97955;-77
2022/09/06 05:56:04;;;;;;;10.95;2.58;;;;;;;15.79;51.35;100921.72;6038341;23;101160;-81
2022/09/06 05:58:30;;;;;;;7.72;2.17;;;;;;;15.78;51.50;100910.28;6037973;23;96788;-79
2022/09/06 06:01:18;;;;;;;11.05;2.42;;;;;;;15.96;51.07;100913.00;6040289;23;97240;-94
2022/09/06 06:04:01;;;;;;;8.52;2.53;;;;;;;16.05;50.72;100912.56;6039944;23;98064;-93
2022/09/06 06:06:28;;;;;;;7.47;2.35;;;;;;;16.32;50.29;100922.75;6067228;23;96581;-92
2022/09/06 06:08:55;;;;;;;8.68;2.40;;;;;;;16.48;49.99;100919.28;6015699;23;97952;-93
2022/09/06 06:11:21;;;;;;;7.55;2.40;;;;;;;16.56;49.67;100921.56;6065668;23;96792;-93
2022/09/06 06:13:47;;;;;;;8.48;2.70;;;;;;;16.59;49.27;100907.31;6043504;23;101321;-93
2022/09/06 06:16:14;;;;;;;4.43;2.25;;;;;;;16.90;49.01;100925.19;6048783;23;101254;-91
2022/09/06 06:18:40;;;;;;;3.75;2.20;;;;;;;16.86;48.99;100924.50;6015238;23;97270;-91
2022/09/06 06:21:15;;;;;;;7.03;2.03;;;;;;;16.88;49.53;100921.78;6016148;23;96968;-94
2022/09/06 06:23:42;;;;;;;4.53;2.42;;;;;;;16.50;50.05;100922.72;6015511;23;100151;-92
2022/09/06 06:26:09;;;;;;;6.03;2.53;;;;;;;16.46;50.55;100930.88;6017947;23;101772;-92
2022/09/06 06:28:35;;;;;;;6.90;2.28;;;;;;;16.40;50.73;100931.19;6042106;23;96651;-90
2022/09/06 06:31:02;;;;;;;7.30;2.50;;;;;;;16.44;50.53;100930.97;6041300;23;96863;-93
2022/09/06 06:33:28;;;;;;;4.70;2.38;;;;;;;16.26;50.91;100922.13;6040415;23;101388;-89
2022/09/06 06:36:05;;;;;;;8.13;2.60;;;;;;;16.32;51.03;100928.03;6067929;23;96834;-91
2022/09/06 06:38:36;;;;;;;8.57;2.45;;;;;;;16.11;51.40;100919.34;6042007;23;98066;-92
2022/09/06 06:41:02;;;;;;;7.23;2.00;;;;;;;15.98;52.05;100911.13;6041306;23;96714;-92
2022/09/06 06:43:28;;;;;;;4.03;2.40;;;;;;;15.85;52.57;100916.13;6039402;23;101307;-88
2022/09/06 06:45:54;;;;;;;6.57;2.42;;;;;;;15.86;52.90;100914.38;6039245;23;97846;-94
2022/09/06 06:48:20;;;;;;;8.43;2.22;;;;;;;15.93;52.44;100921.06;6038746;23;96944;-92
2022/09/06 06:50:45;;;;;;;10.60;2.50;;;;;;;15.86;53.05;100917.88;6063343;23;96775;-92
2022/09/06 06:53:11;;;;;;;6.72;3.13;;;;;;;15.79;53.24;100914.63;6014687;23;99962;-77
2022/09/06 06:55:37;;;;;;;14.48;3.10;;;;;;;15.94;54.38;100920.13;6037973;23;97221;-85
2022/09/06 06:58:02;;;;;;;9.05;2.67;;;;;;;15.86;53.16;100917.00;6037119;23;97261;-77
2022/09/06 07:00:28;;;;;;;7.85;2.58;;;;;;;15.93;52.79;100899.91;6061608;23;97374;-83
2022/09/06 07:02:55;;;;;;;8.90;2.85;;;;;;;15.86;52.87;100896.69;6062069;23;98110;-77
2022/09/06 07:05:24;;;;;;;12.27;3.10;;;;;;;15.86;53.45;100906.44;6038763;23;97766;-77
2022/09/06 07:07:49;;;;;;;11.00;2.63;;;;;;;15.92;53.68;100920.22;6037831;23;96626;-78
2022/09/06 07:10:15;;;;;;;8.85;2.58;;;;;;;15.91;53.95;100917.63;6037613;23;96831;-78
2022/09/06 07:12:40;;;;;;;7.28;2.42;;;;;;;15.97;54.40;100917.34;6037461;23;101533;-77
2022/09/06 07:15:06;;;;;;;10.50;2.88;;;;;;;15.88;55.36;100915.13;6062668;23;97482;-77
2022/09/06 07:17:33;;;;;;;4.75;2.65;;;;;;;15.87;55.28;100913.44;6062391;23;96635;-78
2022/09/06 07:19:59;;;;;;;9.48;2.92;;;;;;;15.88;55.56;100925.72;6037956;23;97284;-81
2022/09/06 07:22:24;;;;;;;12.82;3.40;;;;;;;15.91;55.30;100923.81;6037007;23;99379;-79
2022/09/06 07:24:50;;;;;;;5.18;2.40;;;;;;;16.03;55.00;100931.19;6037810;23;101363;-77
2022/09/06 07:27:16;;;;;;;7.50;2.67;;;;;;;16.12;54.98;100932.53;6088271;23;96637;-77
2022/09/06 07:29:41;;;;;;;12.70;2.35;;;;;;;16.09;54.88;100937.13;6037104;23;96931;-78
2022/09/06 07:32:07;;;;;;;11.63;2.50;;;;;;;16.10;55.74;100942.31;6037505;23;101613;-78
2022/09/06 07:34:36;;;;;;;7.35;2.65;;;;;;;16.04;55.92;100939.97;6063156;23;97834;-77
2022/09/06 07:37:02;;;;;;;8.75;2.38;;;;;;;16.07;55.99;100938.03;6036775;23;96761;-78
2022/09/06 07:39:27;;;;;;;9.90;2.80;;;;;;;16.11;55.58;100932.59;6038557;23;97278;-79
2022/09/06 07:41:53;;;;;;;12.45;2.75;;;;;;;16.10;55.81;100933.53;6061773;23;99087;-79
2022/09/06 07:44:18;;;;;;;6.07;2.75;;;;;;;16.12;55.46;100940.47;6037426;23;101562;-78
2022/09/06 07:46:44;;;;;;;8.77;2.95;;;;;;;16.05;56.21;100931.94;6037061;23;96705;-78
2022/09/06 07:49:09;;;;;;;7.40;3.20;;;;;;;15.97;56.62;100943.81;6038078;23;96780;-78
2022/09/06 07:51:35;;;;;;;8.13;2.72;;;;;;;16.02;56.51;100949.78;6038149;23;101080;-80
2022/09/06 07:54:00;;;;;;;9.95;3.05;;;;;;;16.04;55.91;100953.22;6036988;23;101010;-81
2022/09/06 07:56:26;;;;;;;4.45;2.33;;;;;;;15.96;56.45;100956.19;6038464;23;96660;-77
2022/09/06 07:58:52;;;;;;;5.28;2.65;;;;;;;16.04;56.34;100954.06;6061773;23;97145;-78
2022/09/06 08:01:33;;;;;;;7.07;2.83;;;;;;;16.15;56.19;100963.31;6037505;23;100994;-77
2022/09/06 08:04:03;;;;;;;6.00;2.95;;;;;;;16.25;56.04;100951.34;6013634;23;101291;-77
2022/09/06 08:06:31;;;;;;;5.10;2.70;;;;;;;16.21;56.23;100928.59;6038159;23;97247;-78
2022/09/06 08:08:57;;;;;;;4.13;2.55;;;;;;;16.39;55.10;100930.34;6013279;23;96959;-76
2022/09/06 08:11:24;;;;;;;6.88;3.42;;;;;;;16.46;55.31;100918.53;6037618;23;97965;-76
2022/09/06 08:13:51;;;;;;;8.57;3.38;;;;;;;16.54;55.22;100918.13;6036442;23;101886;-78
2022/09/06 08:16:17;;;;;;;5.65;3.00;;;;;;;16.61;54.48;100910.72;6062190;23;97110;-76
2022/09/06 08:18:42;;;;;;;7.47;3.20;;;;;;;16.79;55.01;100915.16;6012831;23;96854;-82
2022/09/06 08:21:13;;;;;;;9.00;2.63;;;;;;;16.91;54.82;100893.31;6061521;23;98220;-80
2022/09/06 08:23:49;;;;;;;7.15;3.20;;;;;;;17.23;53.94;100890.78;6061293;23;97890;-79
2022/09/06 08:26:16;;;;;;;8.25;3.45;;;;;;;17.45;52.64;100892.28;6061818;23;96646;-80
2022/09/06 08:28:41;;;;;;;6.80;3.22;;;;;;;17.46;52.05;100894.03;6036824;23;97529;-83
2022/09/06 08:31:09;;;;;;;5.45;2.90;;;;;;;17.56;51.66;100890.75;6037348;23;97559;-78
2022/09/06 08:33:36;;;;;;;8.57;2.50;;;;;;;17.79;51.46;100901.97;6037107;23;97315;-78
2022/09/06 08:36:03;;;;;;;13.20;5.82;;;;;;;17.71;50.88;100910.31;6036743;23;96902;-80
2022/09/06 08:38:29;;;;;;;10.90;4.97;;;;;;;17.86;50.42;100906.03;6061472;23;96750;-80
2022/09/06 08:41:08;;;;;;;8.40;3.88;;;;;;;18.02;50.38;100898.03;6036235;23;100816;-76
2022/09/06 08:43:35;;;;;;;13.18;4.45;;;;;;;18.39;50.21;100906.59;6037229;23;100764;-81
2022/09/06 08:46:00;;;;;;;8.52;3.70;;;;;;;18.63;49.88;100904.31;6062151;23;96623;-77
2022/09/06 08:48:33;;;;;;;9.15;3.70;;;;;;;18.88;48.51;100904.63;6037356;23;96913;-77
2022/09/06 08:51:26;;;;;;;6.65;3.90;;;;;;;19.07;47.60;100911.50;6036542;23;101174;-84
2022/09/06 08:53:57;;;;;;;6.95;3.80;;;;;;;19.64;47.14;100906.22;6061477;23;97847;-81
2022/09/06 08:56:24;;;;;;;9.95;3.55;;;;;;;20.54;45.42;100891.56;6037736;23;96746;-82
2022/09/06 08:59:10;;;;;;;10.40;3.55;;;;;;;20.95;43.56;100887.91;6061400;23;96836;-78
2022/09/06 09:01:40;;;;;;;7.55;3.08;;;;;;;22.16;42.10;100890.00;6061632;23;98866;-81
2022/09/06 09:04:11;;;;;;;8.90;3.53;;;;;;;22.83;40.55;100871.63;6061075;23;100167;-80
2022/09/06 09:06:37;;;;;;;9.90;3.17;;;;;;;23.83;38.14;100887.06;6062224;23;96654;-82
2022/09/06 09:09:06;;;;;;;7.68;3.20;;;;;;;24.46;38.00;100885.44;6060931;23;102216;-80
2022/09/06 09:11:34;;;;;;;11.30;3.13;;;;;;;25.07;36.67;100882.94;6037232;23;101846;-82
2022/09/06 09:14:23;;;;;;;7.13;3.33;;;;;;;25.18;35.93;100887.41;6037371;23;97578;-80
2022/09/06 09:16:50;;;;;;;5.03;2.88;;;;;;;25.81;35.73;100873.81;6036533;23;96849;-81
2022/09/06 09:19:15;;;;;;;7.72;2.83;;;;;;;25.96;35.49;100885.06;6062259;23;97319;-82
2022/09/06 09:21:41;;;;;;;6.95;2.92;;;;;;;25.39;35.83;100881.97;6061800;23;97483;-82
2022/09/06 09:24:09;;;;;;;7.03;2.97;;;;;;;24.62;36.67;100869.78;6037378;23;100617;-83
2022/09/06 09:26:57;;;;;;;7.28;3.60;;;;;;;23.69;38.18;100880.94;6087627;23;96653;-84
2022/09/06 09:29:22;;;;;;;7.60;3.42;;;;;;;22.98;39.71;100874.09;6038061;23;96831;-81
2022/09/06 09:31:50;;;;;;;8.13;3.20;;;;;;;23.01;40.22;100873.88;6036982;23;101393;-82
2022/09/06 09:34:34;;;;;;;7.25;2.78;;;;;;;22.57;41.17;100878.94;6073423;23;101248;-90
2022/09/06 09:37:22;;;;;;;6.85;3.00;;;;;;;22.21;41.28;100873.66;6043778;23;96768;-86
2022/09/06 09:39:50;;;;;;;9.27;3.70;;;;;;;22.06;41.38;100867.59;6039330;23;97455;-90
2022/09/06 09:42:26;;;;;;;8.45;3.30;;;;;;;22.12;41.61;100876.00;6038239;23;98224;-88
2022/09/06 09:44:51;;;;;;;5.03;2.95;;;;;;;21.84;42.80;100874.50;6039085;23;97289;-92
2022/09/06 09:47:29;;;;;;;11.05;3.45;;;;;;;21.76;42.85;100871.56;6037473;23;97334;-84
2022/09/06 09:49:55;;;;;;;5.32;3.13;;;;;;;21.49;41.84;100877.03;6037398;23;97018;-83
2022/09/06 09:52:26;;;;;;;7.05;2.90;;;;;;;21.32;42.42;100880.88;6086999;23;98019;-82
2022/09/06 09:54:54;;;;;;;6.35;3.00;;;;;;;21.24;42.55;100868.06;6036191;23;101266;-82
2022/09/06 09:57:21;;;;;;;7.57;2.83;;;;;;;21.30;43.72;100868.59;6037902;23;97348;-87
2022/09/06 09:59:59;;;;;;;10.57;3.40;;;;;;;21.22;43.95;100863.78;6037145;23;97449;-87
2022/09/06 10:02:38;;;;;;;6.47;2.97;;;;;;;21.52;43.94;100863.47;6089028;23;98391;-87
2022/09/06 10:05:08;;;;;;;5.97;2.90;;;;;;;21.80;43.23;100856.16;6037321;23;97895;-83
2022/09/06 10:07:41;;;;;;;6.40;2.60;;;;;;;22.63;42.32;100856.22;6038369;23;97235;-87
2022/09/06 10:10:34;;;;;;;6.72;2.92;;;;;;;22.26;43.02;100858.16;6062883;23;97167;-86
2022/09/06 10:13:11;;;;;;;7.07;2.72;;;;;;;22.00;42.65;100841.34;6065189;23;98300;-85
2022/09/06 10:15:38;;;;;;;8.75;3.17;;;;;;;22.12;43.21;100851.97;6037227;23;97616;-87
2022/09/06 10:18:04;;;;;;;8.95;3.22;;;;;;;22.86;41.87;100845.56;6060166;23;97673;-84
2022/09/06 10:20:40;;;;;;;6.90;2.80;;;;;;;23.33;41.39;100841.00;6060010;23;97707;-86
2022/09/06 10:23:14;;;;;;;6.05;3.08;;;;;;;23.62;40.70;100826.16;6034622;23;99947;-86
2022/09/06 10:25:52;;;;;;;7.18;2.90;;;;;;;23.54;40.80;100823.25;6035694;23;100975;-87
2022/09/06 10:28:35;;;;;;;8.02;3.17;;;;;;;23.09;40.62;100836.63;6059853;23;96689;-86
2022/09/06 10:31:23;;;;;;;7.90;2.88;;;;;;;22.94;41.95;100832.44;6032411;23;98221;-84
2022/09/06 10:34:28;;;;;;;9.30;3.08;;;;;;;22.63;42.14;100826.81;6059317;23;98099;-84
2022/09/06 10:37:15;;;;;;;10.00;3.45;;;;;;;22.48;42.33;100795.84;5982330;23;100697;-85
2022/09/06 10:39:47;;;;;;;5.07;2.83;;;;;;;22.62;42.94;100814.38;6038548;23;97511;-85
2022/09/06 10:42:28;;;;;;;7.97;3.13;;;;;;;22.49;42.22;100805.59;6036809;23;96699;-86
2022/09/06 10:44:56;;;;;;;7.97;3.00;;;;;;;22.22;43.19;100803.19;6037817;23;98182;-85
2022/09/06 10:47:33;;;;;;;6.53;2.67;;;;;;;22.07;43.42;100797.97;6089450;23;98028;-86
2022/09/06 10:50:00;;;;;;;5.22;2.92;;;;;;;21.95;43.44;100800.72;6062580;23;97203;-84
2022/09/06 10:52:34;;;;;;;7.00;2.97;;;;;;;21.84;43.71;100785.47;6063171;23;96811;-86
2022/09/06 10:55:03;;;;;;;8.02;3.03;;;;;;;21.60;43.92;100772.09;6062102;23;98412;-85
2022/09/06 10:57:35;;;;;;;6.65;2.85;;;;;;;21.74;43.87;100787.97;6037882;23;101658;-84
2022/09/06 11:00:10;;;;;;;6.65;2.72;;;;;;;21.58;43.77;100790.91;6037569;23;97076;-86
2022/09/06 11:03:08;;;;;;;4.60;3.08;;;;;;;21.52;44.66;100778.00;6016274;23;96811;-85
2022/09/06 11:06:04;;;;;;;5.95;2.95;;;;;;;21.46;45.06;100779.28;5973436;23;100499;-86
2022/09/06 11:08:42;;;;;;;6.25;2.78;;;;;;;21.24;44.17;100795.13;6017214;23;97706;-84
2022/09/06 11:11:15;;;;;;;7.00;2.85;;;;;;;21.03;44.60;100781.47;6064896;23;97087;-85
2022/09/06 11:13:41;;;;;;;11.02;3.33;;;;;;;20.95;44.62;100784.69;6060930;23;96852;-86
2022/09/06 11:16:15;;;;;;;6.85;3.33;;;;;;;20.94;44.48;100779.47;6061934;23;98350;-85
2022/09/06 11:19:04;;;;;;;12.25;2.83;;;;;;;21.11;44.45;100792.47;6038639;23;100878;-84
2022/09/06 11:21:38;;;;;;;11.52;3.05;;;;;;;21.10;44.57;100790.78;6038839;23;96642;-86
2022/09/06 11:24:31;;;;;;;8.30;3.20;;;;;;;21.21;44.41;100787.34;6037755;23;97959;-86
2022/09/06 11:26:56;;;;;;;11.07;3.13;;;;;;;21.20;44.02;100782.94;6061889;23;97969;-87
2022/09/06 11:29:25;;;;;;;6.90;3.22;;;;;;;21.26;44.07;100787.84;6062777;23;100299;-88
2022/09/06 11:31:55;;;;;;;8.98;2.75;;;;;;;21.32;44.11;100784.78;6037969;23;96983;-87
2022/09/06 11:34:29;;;;;;;24.97;4.77;;;;;;;21.39;43.94;100790.53;6088738;23;96870;-87